Dodsland, Canada
Current Conditions -  °F | °C
As of 1:00 AM on Sunday 23 Nov 2014 (Local Time) from CYKY Reporting Station
Light Snow Light Snow  
Wind Chill:   Ceiling: 700
Heat Index: 19°   Visibility: 3mi
Dew Point: 18°   Wind: 13mph
Humidity: 93%   Direction: 340°NNW
Pressure: 29.54"   Gusts: NA
Location:  51.8°N, 108.83°W
Report Text: CYKY 230700Z 34011KT 3SM -SN OVC007 M07/M08 A2954 RMK SC8 SLP037
Loading
Personal Weather Stations






























Interactive Weather Map New forecast layout! Learn more

10-Day Weather Forecast

Advertisements
Track Severe Weather on mobile